sensor_id;sensor_type;location;lat;lon;timestamp;noise_LAeq;noise_LA_min;noise_LA_max;noise_LA01;noise_LA95
37279;Laerm;7458;49.002;8.472;2023-04-29T00:00:02;44.28;39.46;50.71;;
37279;Laerm;7458;49.002;8.472;2023-04-29T00:02:31;49.44;39.92;69.73;;
37279;Laerm;7458;49.002;8.472;2023-04-29T00:04:58;49.97;39.21;68.58;;
37279;Laerm;7458;49.002;8.472;2023-04-29T00:07:24;51.76;40.23;71.10;;
37279;Laerm;7458;49.002;8.472;2023-04-29T00:09:49;43.57;37.88;50.35;;
37279;Laerm;7458;49.002;8.472;2023-04-29T00:12:15;44.19;39.34;51.01;;
37279;Laerm;7458;49.002;8.472;2023-04-29T00:14:41;46.03;39.46;74.11;;
37279;Laerm;7458;49.002;8.472;2023-04-29T00:17:08;49.91;39.21;70.98;;
37279;Laerm;7458;49.002;8.472;2023-04-29T00:19:35;44.18;39.08;51.10;;
37279;Laerm;7458;49.002;8.472;2023-04-29T00:22:01;44.75;39.58;51.53;;
37279;Laerm;7458;49.002;8.472;2023-04-29T00:24:27;44.58;38.52;50.79;;
37279;Laerm;7458;49.002;8.472;2023-04-29T00:26:52;44.38;39.81;51.17;;
37279;Laerm;7458;49.002;8.472;2023-04-29T00:29:18;44.23;38.95;50.85;;
37279;Laerm;7458;49.002;8.472;2023-04-29T00:31:45;48.82;38.52;67.06;;
37279;Laerm;7458;49.002;8.472;2023-04-29T00:34:10;45.04;39.34;59.02;;
37279;Laerm;7458;49.002;8.472;2023-04-29T00:36:36;44.12;39.34;50.38;;
37279;Laerm;7458;49.002;8.472;2023-04-29T00:39:02;49.19;40.18;67.00;;
37279;Laerm;7458;49.002;8.472;2023-04-29T00:41:29;44.24;39.34;54.85;;
37279;Laerm;7458;49.002;8.472;2023-04-29T00:43:56;43.93;38.67;51.01;;
37279;Laerm;7458;49.002;8.472;2023-04-29T00:46:22;48.14;38.95;65.42;;
37279;Laerm;7458;49.002;8.472;2023-04-29T00:48:48;43.67;38.47;52.67;;
37279;Laerm;7458;49.002;8.472;2023-04-29T00:51:16;49.49;39.58;66.62;;
37279;Laerm;7458;49.002;8.472;2023-04-29T00:53:43;54.67;39.46;76.63;;
37279;Laerm;7458;49.002;8.472;2023-04-29T00:56:10;45.34;39.92;51.82;;
37279;Laerm;7458;49.002;8.472;2023-04-29T00:58:36;47.88;39.68;62.76;;
37279;Laerm;7458;49.002;8.472;2023-04-29T01:01:04;49.75;39.08;69.23;;
37279;Laerm;7458;49.002;8.472;2023-04-29T01:03:30;43.99;38.37;51.18;;
37279;Laerm;7458;49.002;8.472;2023-04-29T01:09:41;43.59;37.88;54.74;;
37279;Laerm;7458;49.002;8.472;2023-04-29T01:12:40;44.18;39.21;51.00;;
37279;Laerm;7458;49.002;8.472;2023-04-29T01:17:43;44.36;38.81;50.99;;
37279;Laerm;7458;49.002;8.472;2023-04-29T01:20:09;44.06;38.37;51.07;;
37279;Laerm;7458;49.002;8.472;2023-04-29T01:22:35;43.84;38.37;51.13;;
37279;Laerm;7458;49.002;8.472;2023-04-29T01:25:02;44.14;38.95;51.21;;
37279;Laerm;7458;49.002;8.472;2023-04-29T01:39:15;53.13;39.70;70.51;;
37279;Laerm;7458;49.002;8.472;2023-04-29T01:42:14;51.24;38.81;73.05;;
37279;Laerm;7458;49.002;8.472;2023-04-29T01:44:43;44.01;38.67;53.02;;
37279;Laerm;7458;49.002;8.472;2023-04-29T01:47:13;44.18;37.87;51.27;;
37279;Laerm;7458;49.002;8.472;2023-04-29T01:49:38;43.94;38.67;50.82;;
37279;Laerm;7458;49.002;8.472;2023-04-29T01:52:05;43.77;38.05;51.07;;
37279;Laerm;7458;49.002;8.472;2023-04-29T01:54:32;44.53;38.52;51.52;;
37279;Laerm;7458;49.002;8.472;2023-04-29T01:57:01;44.09;39.21;51.25;;
37279;Laerm;7458;49.002;8.472;2023-04-29T01:59:28;43.89;38.21;51.06;;
37279;Laerm;7458;49.002;8.472;2023-04-29T02:01:53;44.10;38.05;51.08;;
37279;Laerm;7458;49.002;8.472;2023-04-29T02:04:21;44.08;38.52;51.76;;
37279;Laerm;7458;49.002;8.472;2023-04-29T02:06:46;44.28;38.81;50.76;;
37279;Laerm;7458;49.002;8.472;2023-04-29T02:09:12;44.07;39.08;51.04;;
37279;Laerm;7458;49.002;8.472;2023-04-29T02:11:38;44.08;38.95;53.17;;
37279;Laerm;7458;49.002;8.472;2023-04-29T02:14:04;52.32;40.13;75.98;;
37279;Laerm;7458;49.002;8.472;2023-04-29T02:16:29;48.49;38.05;65.83;;
37279;Laerm;7458;49.002;8.472;2023-04-29T02:18:55;46.88;38.67;62.98;;
37279;Laerm;7458;49.002;8.472;2023-04-29T02:21:21;49.00;39.81;67.41;;
37279;Laerm;7458;49.002;8.472;2023-04-29T02:23:47;43.78;38.52;50.92;;
37279;Laerm;7458;49.002;8.472;2023-04-29T02:26:12;44.30;37.88;52.67;;
37279;Laerm;7458;49.002;8.472;2023-04-29T02:28:39;43.52;38.52;50.71;;
37279;Laerm;7458;49.002;8.472;2023-04-29T02:31:05;43.30;38.05;50.42;;
37279;Laerm;7458;49.002;8.472;2023-04-29T02:33:32;43.96;38.67;51.16;;
37279;Laerm;7458;49.002;8.472;2023-04-29T02:35:57;44.16;39.21;51.77;;
37279;Laerm;7458;49.002;8.472;2023-04-29T02:38:24;44.31;38.67;51.27;;
37279;Laerm;7458;49.002;8.472;2023-04-29T02:40:50;44.03;38.52;52.26;;
37279;Laerm;7458;49.002;8.472;2023-04-29T02:43:16;44.27;38.95;52.02;;
37279;Laerm;7458;49.002;8.472;2023-04-29T02:45:41;43.80;37.88;51.08;;
37279;Laerm;7458;49.002;8.472;2023-04-29T02:48:08;43.82;38.67;50.77;;
37279;Laerm;7458;49.002;8.472;2023-04-29T02:50:33;44.13;38.05;51.57;;
37279;Laerm;7458;49.002;8.472;2023-04-29T02:53:00;44.82;39.46;53.86;;
37279;Laerm;7458;49.002;8.472;2023-04-29T02:55:25;43.96;39.08;50.63;;
37279;Laerm;7458;49.002;8.472;2023-04-29T02:57:51;52.14;39.08;71.01;;
37279;Laerm;7458;49.002;8.472;2023-04-29T03:00:17;43.66;38.21;51.02;;
37279;Laerm;7458;49.002;8.472;2023-04-29T03:02:44;44.65;39.46;52.64;;
37279;Laerm;7458;49.002;8.472;2023-04-29T03:05:09;44.48;38.95;51.53;;
37279;Laerm;7458;49.002;8.472;2023-04-29T03:07:36;44.05;38.95;51.44;;
37279;Laerm;7458;49.002;8.472;2023-04-29T03:10:02;44.24;38.37;51.00;;
37279;Laerm;7458;49.002;8.472;2023-04-29T03:12:27;44.50;39.46;53.68;;
37279;Laerm;7458;49.002;8.472;2023-04-29T03:14:53;44.69;38.95;55.09;;
37279;Laerm;7458;49.002;8.472;2023-04-29T03:17:19;44.69;39.21;55.40;;
37279;Laerm;7458;49.002;8.472;2023-04-29T03:19:44;45.50;39.46;59.46;;
37279;Laerm;7458;49.002;8.472;2023-04-29T03:22:10;45.93;40.18;53.15;;
37279;Laerm;7458;49.002;8.472;2023-04-29T03:24:37;46.00;39.58;55.48;;
37279;Laerm;7458;49.002;8.472;2023-04-29T03:27:04;47.36;39.81;62.37;;
37279;Laerm;7458;49.002;8.472;2023-04-29T03:29:32;47.09;40.98;54.69;;
37279;Laerm;7458;49.002;8.472;2023-04-29T03:31:58;46.27;40.13;56.33;;
37279;Laerm;7458;49.002;8.472;2023-04-29T03:34:24;46.78;39.81;56.66;;
37279;Laerm;7458;49.002;8.472;2023-04-29T03:36:50;47.17;40.23;56.87;;
37279;Laerm;7458;49.002;8.472;2023-04-29T03:39:16;46.63;41.11;57.19;;
37279;Laerm;7458;49.002;8.472;2023-04-29T03:41:42;46.33;39.81;56.41;;
37279;Laerm;7458;49.002;8.472;2023-04-29T03:44:08;46.07;39.81;55.69;;
37279;Laerm;7458;49.002;8.472;2023-04-29T03:46:34;46.60;39.81;57.56;;
37279;Laerm;7458;49.002;8.472;2023-04-29T03:49:00;47.46;39.46;56.35;;
37279;Laerm;7458;49.002;8.472;2023-04-29T03:51:26;47.98;39.58;57.05;;
37279;Laerm;7458;49.002;8.472;2023-04-29T03:53:54;53.02;39.70;70.10;;
37279;Laerm;7458;49.002;8.472;2023-04-29T03:56:23;46.48;39.08;56.78;;
37279;Laerm;7458;49.002;8.472;2023-04-29T03:58:51;47.87;39.21;60.91;;
37279;Laerm;7458;49.002;8.472;2023-04-29T04:01:17;49.05;40.98;62.41;;
37279;Laerm;7458;49.002;8.472;2023-04-29T04:03:44;53.86;40.89;72.69;;
37279;Laerm;7458;49.002;8.472;2023-04-29T04:06:10;49.28;40.03;64.37;;
37279;Laerm;7458;49.002;8.472;2023-04-29T04:08:35;48.84;40.89;62.46;;
37279;Laerm;7458;49.002;8.472;2023-04-29T04:11:01;49.53;40.88;62.92;;
37279;Laerm;7458;49.002;8.472;2023-04-29T04:13:31;50.72;41.06;67.38;;
37279;Laerm;7458;49.002;8.472;2023-04-29T04:15:57;51.79;42.16;66.80;;
37279;Laerm;7458;49.002;8.472;2023-04-29T04:18:23;50.37;41.38;66.88;;
37279;Laerm;7458;49.002;8.472;2023-04-29T04:20:49;54.48;42.22;73.84;;
37279;Laerm;7458;49.002;8.472;2023-04-29T04:23:15;50.56;41.75;70.10;;
37279;Laerm;7458;49.002;8.472;2023-04-29T04:25:48;47.96;42.47;61.24;;
37279;Laerm;7458;49.002;8.472;2023-04-29T04:28:14;52.96;42.22;70.41;;
37279;Laerm;7458;49.002;8.472;2023-04-29T04:30:40;46.75;41.53;55.55;;
37279;Laerm;7458;49.002;8.472;2023-04-29T04:33:07;47.12;41.06;59.63;;
37279;Laerm;7458;49.002;8.472;2023-04-29T04:35:33;47.44;40.98;60.67;;
37279;Laerm;7458;49.002;8.472;2023-04-29T04:37:59;45.83;40.89;58.45;;
37279;Laerm;7458;49.002;8.472;2023-04-29T04:40:25;50.22;40.23;67.32;;
37279;Laerm;7458;49.002;8.472;2023-04-29T04:42:52;59.89;40.23;79.32;;
37279;Laerm;7458;49.002;8.472;2023-04-29T04:45:18;48.05;39.92;65.78;;
37279;Laerm;7458;49.002;8.472;2023-04-29T04:47:44;47.89;40.53;67.01;;
37279;Laerm;7458;49.002;8.472;2023-04-29T04:50:10;47.60;40.62;57.95;;
37279;Laerm;7458;49.002;8.472;2023-04-29T04:52:35;48.14;40.53;63.26;;
37279;Laerm;7458;49.002;8.472;2023-04-29T04:55:01;46.18;40.23;64.93;;
37279;Laerm;7458;49.002;8.472;2023-04-29T04:57:27;46.39;40.71;58.51;;
37279;Laerm;7458;49.002;8.472;2023-04-29T04:59:53;57.86;41.75;77.69;;
37279;Laerm;7458;49.002;8.472;2023-04-29T05:02:18;51.78;41.53;67.51;;
37279;Laerm;7458;49.002;8.472;2023-04-29T05:04:44;46.61;40.71;63.21;;
37279;Laerm;7458;49.002;8.472;2023-04-29T05:07:10;49.93;40.98;69.42;;
37279;Laerm;7458;49.002;8.472;2023-04-29T05:09:36;49.13;41.06;63.92;;
37279;Laerm;7458;49.002;8.472;2023-04-29T05:12:02;46.60;40.79;57.71;;
37279;Laerm;7458;49.002;8.472;2023-04-29T05:14:28;51.28;41.22;72.03;;
37279;Laerm;7458;49.002;8.472;2023-04-29T05:16:58;49.52;41.30;65.09;;
37279;Laerm;7458;49.002;8.472;2023-04-29T05:19:24;47.30;40.80;57.91;;
37279;Laerm;7458;49.002;8.472;2023-04-29T05:21:50;48.12;40.13;67.70;;
37279;Laerm;7458;49.002;8.472;2023-04-29T05:24:16;52.64;41.30;67.95;;
37279;Laerm;7458;49.002;8.472;2023-04-29T05:26:42;47.60;41.38;59.47;;
37279;Laerm;7458;49.002;8.472;2023-04-29T05:29:09;51.39;43.14;69.44;;
37279;Laerm;7458;49.002;8.472;2023-04-29T05:31:36;49.72;42.98;61.03;;
37279;Laerm;7458;49.002;8.472;2023-04-29T05:34:03;58.97;42.47;79.43;;
37279;Laerm;7458;49.002;8.472;2023-04-29T05:36:30;52.28;41.82;73.37;;
37279;Laerm;7458;49.002;8.472;2023-04-29T05:38:56;52.60;41.82;70.06;;
37279;Laerm;7458;49.002;8.472;2023-04-29T05:41:22;50.56;41.38;67.58;;
37279;Laerm;7458;49.002;8.472;2023-04-29T05:43:50;47.32;39.81;59.72;;
37279;Laerm;7458;49.002;8.472;2023-04-29T05:46:16;47.06;41.30;55.20;;
37279;Laerm;7458;49.002;8.472;2023-04-29T05:48:42;46.73;41.22;56.84;;
37279;Laerm;7458;49.002;8.472;2023-04-29T05:51:08;47.36;41.14;60.81;;
37279;Laerm;7458;49.002;8.472;2023-04-29T05:53:34;48.44;40.53;62.40;;
37279;Laerm;7458;49.002;8.472;2023-04-29T05:56:00;45.28;40.33;54.89;;
37279;Laerm;7458;49.002;8.472;2023-04-29T05:58:30;45.56;40.27;57.18;;
37279;Laerm;7458;49.002;8.472;2023-04-29T06:00:56;52.30;40.89;69.36;;
37279;Laerm;7458;49.002;8.472;2023-04-29T06:03:22;48.85;40.53;67.77;;
37279;Laerm;7458;49.002;8.472;2023-04-29T06:05:48;52.19;40.33;74.74;;
37279;Laerm;7458;49.002;8.472;2023-04-29T06:08:14;51.27;40.89;67.86;;
37279;Laerm;7458;49.002;8.472;2023-04-29T06:10:40;51.41;40.23;75.09;;
37279;Laerm;7458;49.002;8.472;2023-04-29T06:13:06;49.17;41.38;60.14;;
37279;Laerm;7458;49.002;8.472;2023-04-29T06:15:31;53.26;41.22;75.72;;
37279;Laerm;7458;49.002;8.472;2023-04-29T06:17:57;49.73;41.53;64.56;;
37279;Laerm;7458;49.002;8.472;2023-04-29T06:20:23;53.96;42.16;68.72;;
37279;Laerm;7458;49.002;8.472;2023-04-29T06:22:49;47.66;41.68;57.23;;
37279;Laerm;7458;49.002;8.472;2023-04-29T06:25:15;51.42;42.47;68.64;;
37279;Laerm;7458;49.002;8.472;2023-04-29T06:27:41;52.20;40.53;66.87;;
37279;Laerm;7458;49.002;8.472;2023-04-29T06:30:07;50.71;40.80;68.33;;
37279;Laerm;7458;49.002;8.472;2023-04-29T06:32:33;50.99;40.71;72.18;;
37279;Laerm;7458;49.002;8.472;2023-04-29T06:34:59;51.06;40.98;67.63;;
37279;Laerm;7458;49.002;8.472;2023-04-29T06:37:26;49.53;41.22;64.64;;
37279;Laerm;7458;49.002;8.472;2023-04-29T06:39:53;57.67;40.98;77.05;;
37279;Laerm;7458;49.002;8.472;2023-04-29T06:42:18;56.89;41.75;76.47;;
37279;Laerm;7458;49.002;8.472;2023-04-29T06:44:44;56.16;41.06;74.51;;
37279;Laerm;7458;49.002;8.472;2023-04-29T06:47:10;49.80;40.71;66.70;;
37279;Laerm;7458;49.002;8.472;2023-04-29T06:49:36;48.34;41.68;60.60;;
37279;Laerm;7458;49.002;8.472;2023-04-29T06:52:01;51.46;40.98;68.16;;
37279;Laerm;7458;49.002;8.472;2023-04-29T06:54:27;55.55;41.06;72.81;;
37279;Laerm;7458;49.002;8.472;2023-04-29T06:56:53;54.66;42.24;72.33;;
37279;Laerm;7458;49.002;8.472;2023-04-29T06:59:19;55.35;41.14;72.13;;
37279;Laerm;7458;49.002;8.472;2023-04-29T07:01:45;48.19;40.98;66.36;;
37279;Laerm;7458;49.002;8.472;2023-04-29T07:04:11;52.35;41.22;70.03;;
37279;Laerm;7458;49.002;8.472;2023-04-29T07:06:37;45.89;39.81;57.14;;
37279;Laerm;7458;49.002;8.472;2023-04-29T07:09:03;54.59;40.03;68.92;;
37279;Laerm;7458;49.002;8.472;2023-04-29T07:11:29;52.29;40.89;69.42;;
37279;Laerm;7458;49.002;8.472;2023-04-29T07:13:54;50.55;40.80;73.80;;
37279;Laerm;7458;49.002;8.472;2023-04-29T07:16:21;60.37;41.96;79.18;;
37279;Laerm;7458;49.002;8.472;2023-04-29T07:18:50;58.66;41.38;77.24;;
37279;Laerm;7458;49.002;8.472;2023-04-29T07:21:16;47.29;40.62;64.08;;
37279;Laerm;7458;49.002;8.472;2023-04-29T07:23:42;48.08;41.46;65.55;;
37279;Laerm;7458;49.002;8.472;2023-04-29T07:26:13;53.60;41.53;71.36;;
37279;Laerm;7458;49.002;8.472;2023-04-29T07:28:41;54.78;42.09;69.04;;
37279;Laerm;7458;49.002;8.472;2023-04-29T07:31:07;52.28;41.46;70.76;;
37279;Laerm;7458;49.002;8.472;2023-04-29T07:33:34;49.21;41.53;64.30;;
37279;Laerm;7458;49.002;8.472;2023-04-29T07:36:01;57.77;40.13;81.68;;
37279;Laerm;7458;49.002;8.472;2023-04-29T07:38:27;52.88;41.38;69.36;;
37279;Laerm;7458;49.002;8.472;2023-04-29T07:40:54;56.22;41.46;75.20;;
37279;Laerm;7458;49.002;8.472;2023-04-29T07:43:20;53.00;41.82;67.66;;
37279;Laerm;7458;49.002;8.472;2023-04-29T07:45:47;48.95;40.03;68.00;;
37279;Laerm;7458;49.002;8.472;2023-04-29T07:48:13;50.11;41.68;61.47;;
37279;Laerm;7458;49.002;8.472;2023-04-29T07:50:38;55.91;42.76;72.73;;
37279;Laerm;7458;49.002;8.472;2023-04-29T07:53:04;54.08;43.34;70.52;;
37279;Laerm;7458;49.002;8.472;2023-04-29T07:55:30;55.29;42.09;74.70;;
37279;Laerm;7458;49.002;8.472;2023-04-29T07:57:57;53.67;43.99;67.07;;
37279;Laerm;7458;49.002;8.472;2023-04-29T08:00:24;51.57;42.29;67.62;;
37279;Laerm;7458;49.002;8.472;2023-04-29T08:02:51;47.82;42.76;63.92;;
37279;Laerm;7458;49.002;8.472;2023-04-29T08:05:17;53.46;41.96;70.43;;
37279;Laerm;7458;49.002;8.472;2023-04-29T08:07:45;55.21;41.68;70.05;;
37279;Laerm;7458;49.002;8.472;2023-04-29T08:10:10;53.33;41.68;75.34;;
37279;Laerm;7458;49.002;8.472;2023-04-29T08:12:37;50.35;42.16;64.98;;
37279;Laerm;7458;49.002;8.472;2023-04-29T08:15:03;52.97;42.16;67.22;;
37279;Laerm;7458;49.002;8.472;2023-04-29T08:17:29;55.99;42.29;72.14;;
37279;Laerm;7458;49.002;8.472;2023-04-29T08:19:55;47.24;39.46;58.63;;
37279;Laerm;7458;49.002;8.472;2023-04-29T08:22:21;54.80;41.75;76.62;;
37279;Laerm;7458;49.002;8.472;2023-04-29T08:24:47;54.83;41.30;70.78;;
37279;Laerm;7458;49.002;8.472;2023-04-29T08:27:14;55.74;40.71;74.12;;
37279;Laerm;7458;49.002;8.472;2023-04-29T08:29:40;51.37;39.21;66.11;;
37279;Laerm;7458;49.002;8.472;2023-04-29T08:32:06;55.21;40.33;73.54;;
37279;Laerm;7458;49.002;8.472;2023-04-29T08:34:32;56.34;43.86;73.46;;
37279;Laerm;7458;49.002;8.472;2023-04-29T08:37:01;51.04;38.21;66.99;;
37279;Laerm;7458;49.002;8.472;2023-04-29T08:39:28;52.06;40.89;71.68;;
37279;Laerm;7458;49.002;8.472;2023-04-29T08:41:58;50.73;38.99;71.01;;
37279;Laerm;7458;49.002;8.472;2023-04-29T08:44:27;55.62;40.62;73.36;;
37279;Laerm;7458;49.002;8.472;2023-04-29T08:46:56;51.50;38.37;67.72;;
37279;Laerm;7458;49.002;8.472;2023-04-29T08:49:24;57.57;42.76;75.58;;
37279;Laerm;7458;49.002;8.472;2023-04-29T08:51:49;49.17;42.82;69.69;;
37279;Laerm;7458;49.002;8.472;2023-04-29T08:54:18;49.95;41.14;65.58;;
37279;Laerm;7458;49.002;8.472;2023-04-29T08:56:47;51.57;41.30;69.49;;
37279;Laerm;7458;49.002;8.472;2023-04-29T08:59:14;55.32;43.04;74.13;;
37279;Laerm;7458;49.002;8.472;2023-04-29T09:01:42;56.71;42.98;69.04;;
37279;Laerm;7458;49.002;8.472;2023-04-29T09:04:26;53.47;41.53;72.74;;
37279;Laerm;7458;49.002;8.472;2023-04-29T09:06:56;54.13;40.89;67.58;;
37279;Laerm;7458;49.002;8.472;2023-04-29T09:09:24;55.83;41.11;68.11;;
37279;Laerm;7458;49.002;8.472;2023-04-29T09:11:51;57.00;43.58;80.93;;
37279;Laerm;7458;49.002;8.472;2023-04-29T09:14:18;51.45;40.71;66.58;;
37279;Laerm;7458;49.002;8.472;2023-04-29T09:16:48;61.42;39.99;94.66;;
37279;Laerm;7458;49.002;8.472;2023-04-29T09:19:34;58.50;42.16;82.85;;
37279;Laerm;7458;49.002;8.472;2023-04-29T09:22:04;53.85;42.09;85.10;;
37279;Laerm;7458;49.002;8.472;2023-04-29T09:24:32;56.56;42.29;73.25;;
37279;Laerm;7458;49.002;8.472;2023-04-29T09:26:59;67.03;42.41;89.12;;
37279;Laerm;7458;49.002;8.472;2023-04-29T09:29:25;51.19;42.09;64.30;;
37279;Laerm;7458;49.002;8.472;2023-04-29T09:31:51;59.83;43.81;76.70;;
37279;Laerm;7458;49.002;8.472;2023-04-29T09:34:35;61.53;43.14;83.91;;
37279;Laerm;7458;49.002;8.472;2023-04-29T09:37:22;55.99;42.71;72.95;;
37279;Laerm;7458;49.002;8.472;2023-04-29T09:39:48;52.27;42.09;69.00;;
37279;Laerm;7458;49.002;8.472;2023-04-29T09:42:14;55.72;41.61;73.06;;
37279;Laerm;7458;49.002;8.472;2023-04-29T09:44:41;55.54;40.98;73.46;;
37279;Laerm;7458;49.002;8.472;2023-04-29T09:47:09;54.48;42.41;74.47;;
37279;Laerm;7458;49.002;8.472;2023-04-29T09:49:40;50.50;41.96;67.71;;
37279;Laerm;7458;49.002;8.472;2023-04-29T09:52:10;54.34;41.82;71.08;;
37279;Laerm;7458;49.002;8.472;2023-04-29T09:54:38;54.95;42.03;71.60;;
37279;Laerm;7458;49.002;8.472;2023-04-29T09:57:07;57.21;42.93;72.14;;
37279;Laerm;7458;49.002;8.472;2023-04-29T09:59:35;53.33;41.14;71.62;;
37279;Laerm;7458;49.002;8.472;2023-04-29T10:02:16;53.14;42.35;68.43;;
37279;Laerm;7458;49.002;8.472;2023-04-29T10:04:53;56.21;42.82;72.16;;
37279;Laerm;7458;49.002;8.472;2023-04-29T10:07:22;53.42;43.49;69.60;;
37279;Laerm;7458;49.002;8.472;2023-04-29T10:09:48;49.32;42.71;60.14;;
37279;Laerm;7458;49.002;8.472;2023-04-29T10:12:19;56.48;42.88;71.20;;
37279;Laerm;7458;49.002;8.472;2023-04-29T10:15:02;59.20;43.77;85.20;;
37279;Laerm;7458;49.002;8.472;2023-04-29T10:17:43;55.13;43.04;73.01;;
37279;Laerm;7458;49.002;8.472;2023-04-29T10:20:13;53.83;43.55;72.07;;
37279;Laerm;7458;49.002;8.472;2023-04-29T10:22:52;53.89;44.47;69.38;;
37279;Laerm;7458;49.002;8.472;2023-04-29T10:25:21;53.82;44.35;73.10;;
37279;Laerm;7458;49.002;8.472;2023-04-29T10:27:48;55.50;44.54;80.01;;
37279;Laerm;7458;49.002;8.472;2023-04-29T10:30:19;53.08;43.86;69.04;;
37279;Laerm;7458;49.002;8.472;2023-04-29T10:32:47;56.04;43.90;74.33;;
37279;Laerm;7458;49.002;8.472;2023-04-29T10:35:15;53.20;44.23;78.23;;
37279;Laerm;7458;49.002;8.472;2023-04-29T10:37:45;50.94;44.35;67.94;;
37279;Laerm;7458;49.002;8.472;2023-04-29T10:40:47;54.11;44.31;69.76;;
37279;Laerm;7458;49.002;8.472;2023-04-29T10:43:14;54.98;44.76;74.21;;
37279;Laerm;7458;49.002;8.472;2023-04-29T10:45:41;55.84;45.07;72.05;;
37279;Laerm;7458;49.002;8.472;2023-04-29T10:48:11;54.62;43.63;69.94;;
37279;Laerm;7458;49.002;8.472;2023-04-29T10:53:17;51.30;43.90;64.42;;
37279;Laerm;7458;49.002;8.472;2023-04-29T10:55:55;55.31;43.72;72.31;;
37279;Laerm;7458;49.002;8.472;2023-04-29T10:58:44;56.59;43.39;73.82;;
37279;Laerm;7458;49.002;8.472;2023-04-29T11:01:15;51.23;43.54;76.18;;
37279;Laerm;7458;49.002;8.472;2023-04-29T11:03:57;59.78;43.55;75.01;;
37279;Laerm;7458;49.002;8.472;2023-04-29T11:14:12;55.49;42.74;72.37;;
37279;Laerm;7458;49.002;8.472;2023-04-29T11:17:00;53.87;44.19;73.80;;
37279;Laerm;7458;49.002;8.472;2023-04-29T11:19:35;52.81;43.33;70.30;;
37279;Laerm;7458;49.002;8.472;2023-04-29T11:25:04;56.49;43.44;73.47;;
37279;Laerm;7458;49.002;8.472;2023-04-29T11:27:37;53.09;43.24;72.28;;
37279;Laerm;7458;49.002;8.472;2023-04-29T11:30:06;55.10;44.47;68.86;;
37279;Laerm;7458;49.002;8.472;2023-04-29T11:32:38;51.01;44.11;65.53;;
37279;Laerm;7458;49.002;8.472;2023-04-29T11:35:17;56.49;43.72;72.52;;
37279;Laerm;7458;49.002;8.472;2023-04-29T11:37:45;54.68;43.39;68.83;;
37279;Laerm;7458;49.002;8.472;2023-04-29T11:40:15;55.45;43.14;69.49;;
37279;Laerm;7458;49.002;8.472;2023-04-29T11:42:47;54.85;44.23;71.25;;
37279;Laerm;7458;49.002;8.472;2023-04-29T11:45:16;56.94;44.90;73.12;;
37279;Laerm;7458;49.002;8.472;2023-04-29T11:47:45;51.99;44.73;72.60;;
37279;Laerm;7458;49.002;8.472;2023-04-29T11:50:12;54.48;43.04;72.13;;
37279;Laerm;7458;49.002;8.472;2023-04-29T11:52:40;51.25;43.09;68.07;;
37279;Laerm;7458;49.002;8.472;2023-04-29T11:55:10;56.95;43.77;71.95;;
37279;Laerm;7458;49.002;8.472;2023-04-29T11:57:37;57.53;44.39;70.77;;
37279;Laerm;7458;49.002;8.472;2023-04-29T12:00:04;55.66;43.86;72.24;;
37279;Laerm;7458;49.002;8.472;2023-04-29T12:02:31;55.24;43.54;70.05;;
37279;Laerm;7458;49.002;8.472;2023-04-29T12:04:59;52.14;43.54;69.71;;
37279;Laerm;7458;49.002;8.472;2023-04-29T12:07:27;56.29;43.34;71.48;;
37279;Laerm;7458;49.002;8.472;2023-04-29T12:09:54;55.13;43.54;71.47;;
37279;Laerm;7458;49.002;8.472;2023-04-29T12:12:22;54.54;42.98;70.02;;
37279;Laerm;7458;49.002;8.472;2023-04-29T12:14:48;48.45;43.04;59.40;;
37279;Laerm;7458;49.002;8.472;2023-04-29T12:17:15;52.69;43.29;70.91;;
37279;Laerm;7458;49.002;8.472;2023-04-29T12:19:42;56.40;43.44;69.23;;
37279;Laerm;7458;49.002;8.472;2023-04-29T12:22:09;51.03;43.68;66.03;;
37279;Laerm;7458;49.002;8.472;2023-04-29T12:24:35;52.98;43.39;70.60;;
37279;Laerm;7458;49.002;8.472;2023-04-29T12:27:06;48.98;43.39;62.29;;
37279;Laerm;7458;49.002;8.472;2023-04-29T12:29:34;56.22;43.34;77.78;;
37279;Laerm;7458;49.002;8.472;2023-04-29T12:32:00;50.76;43.54;66.63;;
37279;Laerm;7458;49.002;8.472;2023-04-29T12:34:31;52.93;44.07;67.44;;
37279;Laerm;7458;49.002;8.472;2023-04-29T12:37:00;52.41;43.24;68.68;;
37279;Laerm;7458;49.002;8.472;2023-04-29T12:39:29;52.38;43.54;70.07;;
37279;Laerm;7458;49.002;8.472;2023-04-29T12:41:59;51.12;43.29;64.21;;
37279;Laerm;7458;49.002;8.472;2023-04-29T12:44:26;53.65;43.68;72.07;;
37279;Laerm;7458;49.002;8.472;2023-04-29T12:47:07;62.05;43.04;83.76;;
37279;Laerm;7458;49.002;8.472;2023-04-29T12:49:34;56.53;43.29;76.62;;
37279;Laerm;7458;49.002;8.472;2023-04-29T12:52:00;58.09;42.85;83.55;;
37279;Laerm;7458;49.002;8.472;2023-04-29T12:54:27;57.08;43.54;74.14;;
37279;Laerm;7458;49.002;8.472;2023-04-29T12:56:53;55.22;44.47;69.67;;
37279;Laerm;7458;49.002;8.472;2023-04-29T12:59:19;56.31;43.49;72.69;;
37279;Laerm;7458;49.002;8.472;2023-04-29T13:01:44;60.30;44.03;77.71;;
37279;Laerm;7458;49.002;8.472;2023-04-29T13:04:10;58.39;44.65;75.40;;
37279;Laerm;7458;49.002;8.472;2023-04-29T13:06:36;56.05;43.81;71.81;;
37279;Laerm;7458;49.002;8.472;2023-04-29T13:09:08;53.71;44.31;69.54;;
37279;Laerm;7458;49.002;8.472;2023-04-29T13:11:38;50.41;43.90;66.78;;
37279;Laerm;7458;49.002;8.472;2023-04-29T13:14:05;56.96;44.31;70.42;;
37279;Laerm;7458;49.002;8.472;2023-04-29T13:16:34;55.35;43.99;71.36;;
37279;Laerm;7458;49.002;8.472;2023-04-29T13:19:00;55.46;44.23;73.43;;
37279;Laerm;7458;49.002;8.472;2023-04-29T13:21:26;53.25;44.23;68.39;;
37279;Laerm;7458;49.002;8.472;2023-04-29T13:23:53;49.08;43.49;59.31;;
37279;Laerm;7458;49.002;8.472;2023-04-29T13:26:19;57.57;43.77;76.33;;
37279;Laerm;7458;49.002;8.472;2023-04-29T13:28:45;55.16;43.63;80.15;;
37279;Laerm;7458;49.002;8.472;2023-04-29T13:31:11;51.98;43.19;71.19;;
37279;Laerm;7458;49.002;8.472;2023-04-29T13:33:37;60.05;42.76;80.97;;
37279;Laerm;7458;49.002;8.472;2023-04-29T13:36:03;52.19;42.98;68.14;;
37279;Laerm;7458;49.002;8.472;2023-04-29T13:38:29;52.42;43.24;65.77;;
37279;Laerm;7458;49.002;8.472;2023-04-29T13:40:56;57.78;43.94;72.50;;
37279;Laerm;7458;49.002;8.472;2023-04-29T13:43:21;55.48;42.35;70.41;;
37279;Laerm;7458;49.002;8.472;2023-04-29T13:45:47;54.40;43.19;68.83;;
37279;Laerm;7458;49.002;8.472;2023-04-29T13:48:13;48.90;43.49;57.98;;
37279;Laerm;7458;49.002;8.472;2023-04-29T13:50:39;60.91;43.68;77.97;;
37279;Laerm;7458;49.002;8.472;2023-04-29T13:53:06;52.38;42.98;69.08;;
37279;Laerm;7458;49.002;8.472;2023-04-29T13:55:33;54.24;43.44;70.82;;
37279;Laerm;7458;49.002;8.472;2023-04-29T13:58:01;55.40;43.99;75.53;;
37279;Laerm;7458;49.002;8.472;2023-04-29T14:00:27;54.93;43.39;69.74;;
37279;Laerm;7458;49.002;8.472;2023-04-29T14:02:54;49.17;42.88;63.73;;
37279;Laerm;7458;49.002;8.472;2023-04-29T14:05:20;53.08;43.39;69.00;;
37279;Laerm;7458;49.002;8.472;2023-04-29T14:07:46;57.69;43.86;76.14;;
37279;Laerm;7458;49.002;8.472;2023-04-29T14:10:11;57.69;43.68;73.91;;
37279;Laerm;7458;49.002;8.472;2023-04-29T14:12:37;60.23;43.29;83.62;;
37279;Laerm;7458;49.002;8.472;2023-04-29T14:15:04;55.66;44.03;74.53;;
37279;Laerm;7458;49.002;8.472;2023-04-29T14:17:30;56.34;43.94;72.75;;
37279;Laerm;7458;49.002;8.472;2023-04-29T14:19:56;54.10;43.99;69.11;;
37279;Laerm;7458;49.002;8.472;2023-04-29T14:22:22;56.20;44.65;73.56;;
37279;Laerm;7458;49.002;8.472;2023-04-29T14:24:48;53.68;44.15;72.40;;
37279;Laerm;7458;49.002;8.472;2023-04-29T14:27:14;58.88;43.72;77.06;;
37279;Laerm;7458;49.002;8.472;2023-04-29T14:29:39;53.25;44.19;66.79;;